sensor_id;sensor_type;location;lat;lon;timestamp;P1;P2;P0
70691;PMS5003;58267;51.156;17.044;2023-02-15T00:01:11;65;59;
70691;PMS5003;58267;51.156;17.044;2023-02-15T00:03:37;65;58;
70691;PMS5003;58267;51.156;17.044;2023-02-15T00:06:03;60;55;
70691;PMS5003;58267;51.156;17.044;2023-02-15T00:08:28;58;49;
70691;PMS5003;58267;51.156;17.044;2023-02-15T00:10:53;61;59;
70691;PMS5003;58267;51.156;17.044;2023-02-15T00:13:19;55;54;
70691;PMS5003;58267;51.156;17.044;2023-02-15T00:15:45;61;56;
70691;PMS5003;58267;51.156;17.044;2023-02-15T00:18:10;55;51;
70691;PMS5003;58267;51.156;17.044;2023-02-15T00:20:36;51;51;
70691;PMS5003;58267;51.156;17.044;2023-02-15T00:23:01;58;54;
70691;PMS5003;58267;51.156;17.044;2023-02-15T00:25:27;65;58;
70691;PMS5003;58267;51.156;17.044;2023-02-15T00:27:53;55;47;
70691;PMS5003;58267;51.156;17.044;2023-02-15T00:30:19;71;61;
70691;PMS5003;58267;51.156;17.044;2023-02-15T00:32:45;69;64;
70691;PMS5003;58267;51.156;17.044;2023-02-15T00:35:10;79;74;
70691;PMS5003;58267;51.156;17.044;2023-02-15T00:37:36;80;72;
70691;PMS5003;58267;51.156;17.044;2023-02-15T00:40:01;75;72;
70691;PMS5003;58267;51.156;17.044;2023-02-15T00:42:27;78;67;
70691;PMS5003;58267;51.156;17.044;2023-02-15T00:44:53;76;71;
70691;PMS5003;58267;51.156;17.044;2023-02-15T00:47:18;83;75;
70691;PMS5003;58267;51.156;17.044;2023-02-15T00:49:44;80;73;
70691;PMS5003;58267;51.156;17.044;2023-02-15T00:52:10;80;76;
70691;PMS5003;58267;51.156;17.044;2023-02-15T00:54:35;89;81;
70691;PMS5003;58267;51.156;17.044;2023-02-15T00:57:01;86;78;
70691;PMS5003;58267;51.156;17.044;2023-02-15T00:59:26;90;86;
70691;PMS5003;58267;51.156;17.044;2023-02-15T01:01:51;89;83;
70691;PMS5003;58267;51.156;17.044;2023-02-15T01:04:16;100;91;
70691;PMS5003;58267;51.156;17.044;2023-02-15T01:06:41;90;86;
70691;PMS5003;58267;51.156;17.044;2023-02-15T01:09:07;86;81;
70691;PMS5003;58267;51.156;17.044;2023-02-15T01:11:32;89;82;
70691;PMS5003;58267;51.156;17.044;2023-02-15T01:13:58;106;92;
70691;PMS5003;58267;51.156;17.044;2023-02-15T01:16:24;88;81;
70691;PMS5003;58267;51.156;17.044;2023-02-15T01:18:49;89;85;
70691;PMS5003;58267;51.156;17.044;2023-02-15T01:21:15;89;77;
70691;PMS5003;58267;51.156;17.044;2023-02-15T01:23:40;98;90;
70691;PMS5003;58267;51.156;17.044;2023-02-15T01:26:05;104;90;
70691;PMS5003;58267;51.156;17.044;2023-02-15T01:28:31;93;87;
70691;PMS5003;58267;51.156;17.044;2023-02-15T01:30:56;93;85;
70691;PMS5003;58267;51.156;17.044;2023-02-15T01:33:21;96;88;
70691;PMS5003;58267;51.156;17.044;2023-02-15T01:35:47;93;86;
70691;PMS5003;58267;51.156;17.044;2023-02-15T01:38:12;102;90;
70691;PMS5003;58267;51.156;17.044;2023-02-15T01:40:37;98;88;
70691;PMS5003;58267;51.156;17.044;2023-02-15T01:43:07;104;95;
70691;PMS5003;58267;51.156;17.044;2023-02-15T01:45:30;90;78;
70691;PMS5003;58267;51.156;17.044;2023-02-15T01:47:56;92;82;
70691;PMS5003;58267;51.156;17.044;2023-02-15T01:50:20;98;88;
70691;PMS5003;58267;51.156;17.044;2023-02-15T01:52:46;96;86;
70691;PMS5003;58267;51.156;17.044;2023-02-15T01:55:10;96;83;
70691;PMS5003;58267;51.156;17.044;2023-02-15T01:57:36;106;89;
70691;PMS5003;58267;51.156;17.044;2023-02-15T02:00:03;92;83;
70691;PMS5003;58267;51.156;17.044;2023-02-15T02:02:27;94;86;
70691;PMS5003;58267;51.156;17.044;2023-02-15T02:04:53;110;96;
70691;PMS5003;58267;51.156;17.044;2023-02-15T02:07:19;103;89;
70691;PMS5003;58267;51.156;17.044;2023-02-15T02:09:43;92;81;
70691;PMS5003;58267;51.156;17.044;2023-02-15T02:12:08;96;88;
70691;PMS5003;58267;51.156;17.044;2023-02-15T02:14:33;94;81;
70691;PMS5003;58267;51.156;17.044;2023-02-15T02:17:02;94;86;
70691;PMS5003;58267;51.156;17.044;2023-02-15T02:21:56;96;89;
70691;PMS5003;58267;51.156;17.044;2023-02-15T02:24:21;105;95;
70691;PMS5003;58267;51.156;17.044;2023-02-15T02:26:49;97;91;
70691;PMS5003;58267;51.156;17.044;2023-02-15T02:31:37;112;101;
70691;PMS5003;58267;51.156;17.044;2023-02-15T02:33:58;111;97;
70691;PMS5003;58267;51.156;17.044;2023-02-15T02:36:24;108;97;
70691;PMS5003;58267;51.156;17.044;2023-02-15T02:38:52;94;88;
70691;PMS5003;58267;51.156;17.044;2023-02-15T02:41:16;102;94;
70691;PMS5003;58267;51.156;17.044;2023-02-15T02:43:40;101;89;
70691;PMS5003;58267;51.156;17.044;2023-02-15T02:46:06;97;90;
70691;PMS5003;58267;51.156;17.044;2023-02-15T02:48:30;103;88;
70691;PMS5003;58267;51.156;17.044;2023-02-15T02:50:56;98;90;
70691;PMS5003;58267;51.156;17.044;2023-02-15T02:53:22;96;84;
70691;PMS5003;58267;51.156;17.044;2023-02-15T02:55:48;96;88;
70691;PMS5003;58267;51.156;17.044;2023-02-15T02:58:14;97;88;
70691;PMS5003;58267;51.156;17.044;2023-02-15T03:00:39;93;87;
70691;PMS5003;58267;51.156;17.044;2023-02-15T03:03:05;108;92;
70691;PMS5003;58267;51.156;17.044;2023-02-15T03:05:30;105;90;
70691;PMS5003;58267;51.156;17.044;2023-02-15T03:07:55;102;93;
70691;PMS5003;58267;51.156;17.044;2023-02-15T03:10:21;100;94;
70691;PMS5003;58267;51.156;17.044;2023-02-15T03:12:46;102;96;
70691;PMS5003;58267;51.156;17.044;2023-02-15T03:15:13;106;96;
70691;PMS5003;58267;51.156;17.044;2023-02-15T03:17:38;96;87;
70691;PMS5003;58267;51.156;17.044;2023-02-15T03:20:05;106;94;
70691;PMS5003;58267;51.156;17.044;2023-02-15T03:22:29;103;92;
70691;PMS5003;58267;51.156;17.044;2023-02-15T03:24:55;99;92;
70691;PMS5003;58267;51.156;17.044;2023-02-15T03:27:19;96;86;
70691;PMS5003;58267;51.156;17.044;2023-02-15T03:29:45;101;94;
70691;PMS5003;58267;51.156;17.044;2023-02-15T03:32:10;102;86;
70691;PMS5003;58267;51.156;17.044;2023-02-15T03:34:36;95;90;
70691;PMS5003;58267;51.156;17.044;2023-02-15T03:37:03;103;92;
70691;PMS5003;58267;51.156;17.044;2023-02-15T03:39:27;101;90;
70691;PMS5003;58267;51.156;17.044;2023-02-15T03:41:54;100;92;
70691;PMS5003;58267;51.156;17.044;2023-02-15T03:44:18;95;89;
70691;PMS5003;58267;51.156;17.044;2023-02-15T03:46:43;95;86;
70691;PMS5003;58267;51.156;17.044;2023-02-15T03:49:09;92;88;
70691;PMS5003;58267;51.156;17.044;2023-02-15T03:51:34;101;86;
70691;PMS5003;58267;51.156;17.044;2023-02-15T03:53:59;91;84;
70691;PMS5003;58267;51.156;17.044;2023-02-15T03:56:24;94;86;
70691;PMS5003;58267;51.156;17.044;2023-02-15T03:58:49;85;82;
70691;PMS5003;58267;51.156;17.044;2023-02-15T04:01:17;91;82;
70691;PMS5003;58267;51.156;17.044;2023-02-15T04:03:42;90;79;
70691;PMS5003;58267;51.156;17.044;2023-02-15T04:06:06;88;81;
70691;PMS5003;58267;51.156;17.044;2023-02-15T04:08:32;94;80;
70691;PMS5003;58267;51.156;17.044;2023-02-15T04:10:57;85;81;
70691;PMS5003;58267;51.156;17.044;2023-02-15T04:13:23;89;84;
70691;PMS5003;58267;51.156;17.044;2023-02-15T04:15:48;98;87;
70691;PMS5003;58267;51.156;17.044;2023-02-15T04:18:13;94;80;
70691;PMS5003;58267;51.156;17.044;2023-02-15T04:20:40;85;77;
70691;PMS5003;58267;51.156;17.044;2023-02-15T04:23:05;93;80;
70691;PMS5003;58267;51.156;17.044;2023-02-15T04:25:30;80;72;
70691;PMS5003;58267;51.156;17.044;2023-02-15T04:27:55;114;96;
70691;PMS5003;58267;51.156;17.044;2023-02-15T04:30:22;76;73;
70691;PMS5003;58267;51.156;17.044;2023-02-15T04:32:46;82;73;
70691;PMS5003;58267;51.156;17.044;2023-02-15T04:35:12;77;70;
70691;PMS5003;58267;51.156;17.044;2023-02-15T04:37:38;82;73;
70691;PMS5003;58267;51.156;17.044;2023-02-15T04:40:03;77;72;
70691;PMS5003;58267;51.156;17.044;2023-02-15T04:42:28;77;72;
70691;PMS5003;58267;51.156;17.044;2023-02-15T04:44:54;85;79;
70691;PMS5003;58267;51.156;17.044;2023-02-15T04:47:19;80;74;
70691;PMS5003;58267;51.156;17.044;2023-02-15T04:49:45;77;72;
70691;PMS5003;58267;51.156;17.044;2023-02-15T04:52:11;71;66;
70691;PMS5003;58267;51.156;17.044;2023-02-15T04:54:36;78;74;
70691;PMS5003;58267;51.156;17.044;2023-02-15T04:57:01;75;69;
70691;PMS5003;58267;51.156;17.044;2023-02-15T04:59:27;81;74;
70691;PMS5003;58267;51.156;17.044;2023-02-15T05:01:53;69;65;
70691;PMS5003;58267;51.156;17.044;2023-02-15T05:04:22;83;59;
70691;PMS5003;58267;51.156;17.044;2023-02-15T05:06:47;81;74;
70691;PMS5003;58267;51.156;17.044;2023-02-15T05:09:12;78;69;
70691;PMS5003;58267;51.156;17.044;2023-02-15T05:11:38;81;73;
70691;PMS5003;58267;51.156;17.044;2023-02-15T05:14:03;78;69;
70691;PMS5003;58267;51.156;17.044;2023-02-15T05:16:28;70;66;
70691;PMS5003;58267;51.156;17.044;2023-02-15T05:18:53;76;70;
70691;PMS5003;58267;51.156;17.044;2023-02-15T05:21:19;78;75;
70691;PMS5003;58267;51.156;17.044;2023-02-15T05:23:44;72;66;
70691;PMS5003;58267;51.156;17.044;2023-02-15T05:26:09;80;77;
70691;PMS5003;58267;51.156;17.044;2023-02-15T05:28:36;79;71;
70691;PMS5003;58267;51.156;17.044;2023-02-15T05:31:02;73;68;
70691;PMS5003;58267;51.156;17.044;2023-02-15T05:33:26;83;71;
70691;PMS5003;58267;51.156;17.044;2023-02-15T05:35:52;73;68;
70691;PMS5003;58267;51.156;17.044;2023-02-15T05:38:17;82;73;
70691;PMS5003;58267;51.156;17.044;2023-02-15T05:40:43;73;66;
70691;PMS5003;58267;51.156;17.044;2023-02-15T05:43:09;80;74;
70691;PMS5003;58267;51.156;17.044;2023-02-15T05:45:34;72;71;
70691;PMS5003;58267;51.156;17.044;2023-02-15T05:48:00;78;72;
70691;PMS5003;58267;51.156;17.044;2023-02-15T05:50:26;74;67;
70691;PMS5003;58267;51.156;17.044;2023-02-15T05:52:51;77;68;
70691;PMS5003;58267;51.156;17.044;2023-02-15T05:55:17;82;77;
70691;PMS5003;58267;51.156;17.044;2023-02-15T05:57:42;76;68;
70691;PMS5003;58267;51.156;17.044;2023-02-15T06:00:08;82;74;
70691;PMS5003;58267;51.156;17.044;2023-02-15T06:02:33;79;77;
70691;PMS5003;58267;51.156;17.044;2023-02-15T06:04:58;79;71;
70691;PMS5003;58267;51.156;17.044;2023-02-15T06:07:23;83;73;
70691;PMS5003;58267;51.156;17.044;2023-02-15T06:09:49;78;72;
70691;PMS5003;58267;51.156;17.044;2023-02-15T06:12:14;83;75;
70691;PMS5003;58267;51.156;17.044;2023-02-15T06:14:40;78;74;
70691;PMS5003;58267;51.156;17.044;2023-02-15T06:17:05;78;72;
70691;PMS5003;58267;51.156;17.044;2023-02-15T06:19:32;84;79;
70691;PMS5003;58267;51.156;17.044;2023-02-15T06:21:58;82;79;
70691;PMS5003;58267;51.156;17.044;2023-02-15T06:24:23;82;72;
70691;PMS5003;58267;51.156;17.044;2023-02-15T06:26:48;95;84;
70691;PMS5003;58267;51.156;17.044;2023-02-15T06:29:13;78;72;
70691;PMS5003;58267;51.156;17.044;2023-02-15T06:31:39;85;78;
70691;PMS5003;58267;51.156;17.044;2023-02-15T06:34:04;82;70;
70691;PMS5003;58267;51.156;17.044;2023-02-15T06:36:30;94;85;
70691;PMS5003;58267;51.156;17.044;2023-02-15T06:38:56;87;81;
70691;PMS5003;58267;51.156;17.044;2023-02-15T06:41:21;76;70;
70691;PMS5003;58267;51.156;17.044;2023-02-15T06:43:47;86;78;
70691;PMS5003;58267;51.156;17.044;2023-02-15T06:46:17;59;59;
70691;PMS5003;58267;51.156;17.044;2023-02-15T06:48:42;94;79;
70691;PMS5003;58267;51.156;17.044;2023-02-15T06:51:08;87;81;
70691;PMS5003;58267;51.156;17.044;2023-02-15T06:53:34;92;81;
70691;PMS5003;58267;51.156;17.044;2023-02-15T06:56:01;86;81;
70691;PMS5003;58267;51.156;17.044;2023-02-15T06:58:24;88;83;
70691;PMS5003;58267;51.156;17.044;2023-02-15T07:00:51;89;81;
70691;PMS5003;58267;51.156;17.044;2023-02-15T07:03:15;93;79;
70691;PMS5003;58267;51.156;17.044;2023-02-15T07:05:41;89;79;
70691;PMS5003;58267;51.156;17.044;2023-02-15T07:08:06;89;80;
70691;PMS5003;58267;51.156;17.044;2023-02-15T07:10:32;85;80;
70691;PMS5003;58267;51.156;17.044;2023-02-15T07:12:58;93;88;
70691;PMS5003;58267;51.156;17.044;2023-02-15T07:15:23;87;83;
70691;PMS5003;58267;51.156;17.044;2023-02-15T07:17:48;92;81;
70691;PMS5003;58267;51.156;17.044;2023-02-15T07:20:15;87;80;
70691;PMS5003;58267;51.156;17.044;2023-02-15T07:22:39;91;80;
70691;PMS5003;58267;51.156;17.044;2023-02-15T07:25:05;82;76;
70691;PMS5003;58267;51.156;17.044;2023-02-15T07:27:30;88;78;
70691;PMS5003;58267;51.156;17.044;2023-02-15T07:29:55;84;80;
70691;PMS5003;58267;51.156;17.044;2023-02-15T07:32:20;82;79;
70691;PMS5003;58267;51.156;17.044;2023-02-15T07:34:48;65;65;
70691;PMS5003;58267;51.156;17.044;2023-02-15T07:37:13;86;78;
70691;PMS5003;58267;51.156;17.044;2023-02-15T07:39:39;89;81;
70691;PMS5003;58267;51.156;17.044;2023-02-15T07:42:04;79;72;
70691;PMS5003;58267;51.156;17.044;2023-02-15T07:44:29;81;77;
70691;PMS5003;58267;51.156;17.044;2023-02-15T07:46:54;83;76;
70691;PMS5003;58267;51.156;17.044;2023-02-15T07:49:20;90;76;
70691;PMS5003;58267;51.156;17.044;2023-02-15T07:51:45;87;79;
70691;PMS5003;58267;51.156;17.044;2023-02-15T07:54:10;82;74;
70691;PMS5003;58267;51.156;17.044;2023-02-15T07:56:36;91;83;
70691;PMS5003;58267;51.156;17.044;2023-02-15T07:59:01;82;75;
70691;PMS5003;58267;51.156;17.044;2023-02-15T08:01:27;84;73;
70691;PMS5003;58267;51.156;17.044;2023-02-15T08:03:52;88;77;
70691;PMS5003;58267;51.156;17.044;2023-02-15T08:06:17;83;73;
70691;PMS5003;58267;51.156;17.044;2023-02-15T08:08:42;75;69;
70691;PMS5003;58267;51.156;17.044;2023-02-15T08:11:14;82;71;
70691;PMS5003;58267;51.156;17.044;2023-02-15T08:13:33;84;74;
70691;PMS5003;58267;51.156;17.044;2023-02-15T08:15:58;79;70;
70691;PMS5003;58267;51.156;17.044;2023-02-15T08:18:24;83;75;
70691;PMS5003;58267;51.156;17.044;2023-02-15T08:20:49;82;71;
70691;PMS5003;58267;51.156;17.044;2023-02-15T08:23:15;79;72;
70691;PMS5003;58267;51.156;17.044;2023-02-15T08:25:40;78;69;
70691;PMS5003;58267;51.156;17.044;2023-02-15T08:28:06;87;77;
70691;PMS5003;58267;51.156;17.044;2023-02-15T08:30:31;81;77;
70691;PMS5003;58267;51.156;17.044;2023-02-15T08:32:57;81;69;
70691;PMS5003;58267;51.156;17.044;2023-02-15T08:35:22;82;75;
70691;PMS5003;58267;51.156;17.044;2023-02-15T08:37:47;80;71;
70691;PMS5003;58267;51.156;17.044;2023-02-15T08:40:13;70;66;
70691;PMS5003;58267;51.156;17.044;2023-02-15T08:42:38;74;65;
70691;PMS5003;58267;51.156;17.044;2023-02-15T08:45:03;69;64;
70691;PMS5003;58267;51.156;17.044;2023-02-15T08:47:29;75;65;
70691;PMS5003;58267;51.156;17.044;2023-02-15T08:49:55;65;60;
70691;PMS5003;58267;51.156;17.044;2023-02-15T08:52:20;64;62;
70691;PMS5003;58267;51.156;17.044;2023-02-15T08:54:46;68;62;
70691;PMS5003;58267;51.156;17.044;2023-02-15T08:57:12;65;61;
70691;PMS5003;58267;51.156;17.044;2023-02-15T08:59:38;70;63;
70691;PMS5003;58267;51.156;17.044;2023-02-15T09:02:04;63;57;
70691;PMS5003;58267;51.156;17.044;2023-02-15T09:04:30;65;60;
70691;PMS5003;58267;51.156;17.044;2023-02-15T09:06:55;64;56;
70691;PMS5003;58267;51.156;17.044;2023-02-15T09:09:21;68;63;
70691;PMS5003;58267;51.156;17.044;2023-02-15T09:11:47;61;58;
70691;PMS5003;58267;51.156;17.044;2023-02-15T09:14:12;67;62;
70691;PMS5003;58267;51.156;17.044;2023-02-15T09:16:37;66;60;
70691;PMS5003;58267;51.156;17.044;2023-02-15T09:19:02;59;55;
70691;PMS5003;58267;51.156;17.044;2023-02-15T09:21:28;64;58;
70691;PMS5003;58267;51.156;17.044;2023-02-15T09:23:55;65;63;
70691;PMS5003;58267;51.156;17.044;2023-02-15T09:26:19;60;56;
70691;PMS5003;58267;51.156;17.044;2023-02-15T09:28:44;65;58;
70691;PMS5003;58267;51.156;17.044;2023-02-15T09:31:11;61;55;
70691;PMS5003;58267;51.156;17.044;2023-02-15T09:33:37;63;55;
70691;PMS5003;58267;51.156;17.044;2023-02-15T09:36:02;68;62;
70691;PMS5003;58267;51.156;17.044;2023-02-15T09:38:27;64;57;
70691;PMS5003;58267;51.156;17.044;2023-02-15T09:40:54;64;55;
70691;PMS5003;58267;51.156;17.044;2023-02-15T09:43:19;68;63;
70691;PMS5003;58267;51.156;17.044;2023-02-15T09:45:49;82;63;
70691;PMS5003;58267;51.156;17.044;2023-02-15T09:48:16;69;63;
70691;PMS5003;58267;51.156;17.044;2023-02-15T09:50:37;66;61;
70691;PMS5003;58267;51.156;17.044;2023-02-15T09:53:07;64;60;
70691;PMS5003;58267;51.156;17.044;2023-02-15T09:55:32;74;67;
70691;PMS5003;58267;51.156;17.044;2023-02-15T09:57:54;72;66;
70691;PMS5003;58267;51.156;17.044;2023-02-15T10:00:19;64;57;
70691;PMS5003;58267;51.156;17.044;2023-02-15T10:02:47;73;64;
70691;PMS5003;58267;51.156;17.044;2023-02-15T10:05:11;69;65;
70691;PMS5003;58267;51.156;17.044;2023-02-15T10:07:43;66;65;
70691;PMS5003;58267;51.156;17.044;2023-02-15T10:10:02;67;64;
70691;PMS5003;58267;51.156;17.044;2023-02-15T10:12:28;73;68;
70691;PMS5003;58267;51.156;17.044;2023-02-15T10:14:56;64;60;
70691;PMS5003;58267;51.156;17.044;2023-02-15T10:17:18;71;68;
70691;PMS5003;58267;51.156;17.044;2023-02-15T10:19:42;64;60;
70691;PMS5003;58267;51.156;17.044;2023-02-15T10:22:09;70;63;
70691;PMS5003;58267;51.156;17.044;2023-02-15T10:24:36;68;65;
70691;PMS5003;58267;51.156;17.044;2023-02-15T10:26:58;72;63;
70691;PMS5003;58267;51.156;17.044;2023-02-15T10:29:26;62;60;
70691;PMS5003;58267;51.156;17.044;2023-02-15T10:31:49;53;53;
70691;PMS5003;58267;51.156;17.044;2023-02-15T10:34:15;86;72;
70691;PMS5003;58267;51.156;17.044;2023-02-15T10:36:44;72;66;
70691;PMS5003;58267;51.156;17.044;2023-02-15T10:39:05;63;58;
70691;PMS5003;58267;51.156;17.044;2023-02-15T10:41:34;69;64;
70691;PMS5003;58267;51.156;17.044;2023-02-15T10:46:24;63;61;
70691;PMS5003;58267;51.156;17.044;2023-02-15T10:48:52;65;60;
70691;PMS5003;58267;51.156;17.044;2023-02-15T10:51:12;66;58;
70691;PMS5003;58267;51.156;17.044;2023-02-15T10:53:43;69;60;
70691;PMS5003;58267;51.156;17.044;2023-02-15T10:56:04;67;62;
70691;PMS5003;58267;51.156;17.044;2023-02-15T10:58:30;75;67;
70691;PMS5003;58267;51.156;17.044;2023-02-15T11:00:53;75;69;
70691;PMS5003;58267;51.156;17.044;2023-02-15T11:03:27;43;37;
70691;PMS5003;58267;51.156;17.044;2023-02-15T11:05:50;64;62;
70691;PMS5003;58267;51.156;17.044;2023-02-15T11:08:13;67;62;
70691;PMS5003;58267;51.156;17.044;2023-02-15T11:10:39;61;58;
70691;PMS5003;58267;51.156;17.044;2023-02-15T11:13:06;62;60;
70691;PMS5003;58267;51.156;17.044;2023-02-15T11:15:30;58;53;
70691;PMS5003;58267;51.156;17.044;2023-02-15T11:17:55;50;47;
70691;PMS5003;58267;51.156;17.044;2023-02-15T11:20:22;58;55;
70691;PMS5003;58267;51.156;17.044;2023-02-15T11:22:47;59;53;
70691;PMS5003;58267;51.156;17.044;2023-02-15T11:25:14;62;57;
70691;PMS5003;58267;51.156;17.044;2023-02-15T11:27:37;53;49;
70691;PMS5003;58267;51.156;17.044;2023-02-15T11:30:04;57;55;
70691;PMS5003;58267;51.156;17.044;2023-02-15T11:32:28;51;48;
70691;PMS5003;58267;51.156;17.044;2023-02-15T11:34:53;55;52;
70691;PMS5003;58267;51.156;17.044;2023-02-15T11:37:20;57;54;
70691;PMS5003;58267;51.156;17.044;2023-02-15T11:39:44;46;43;
70691;PMS5003;58267;51.156;17.044;2023-02-15T11:42:10;61;56;
70691;PMS5003;58267;51.156;17.044;2023-02-15T11:44:35;64;60;
70691;PMS5003;58267;51.156;17.044;2023-02-15T11:47:00;65;62;
70691;PMS5003;58267;51.156;17.044;2023-02-15T11:49:27;65;61;
70691;PMS5003;58267;51.156;17.044;2023-02-15T11:51:51;61;58;
70691;PMS5003;58267;51.156;17.044;2023-02-15T11:54:17;64;59;
70691;PMS5003;58267;51.156;17.044;2023-02-15T11:56:43;57;54;
70691;PMS5003;58267;51.156;17.044;2023-02-15T11:59:10;68;61;
70691;PMS5003;58267;51.156;17.044;2023-02-15T12:01:35;58;55;
70691;PMS5003;58267;51.156;17.044;2023-02-15T12:04:01;64;60;
70691;PMS5003;58267;51.156;17.044;2023-02-15T12:06:26;60;55;
70691;PMS5003;58267;51.156;17.044;2023-02-15T12:08:54;60;52;
70691;PMS5003;58267;51.156;17.044;2023-02-15T12:11:17;63;59;
70691;PMS5003;58267;51.156;17.044;2023-02-15T12:16:09;56;52;
70691;PMS5003;58267;51.156;17.044;2023-02-15T12:18:34;57;54;
70691;PMS5003;58267;51.156;17.044;2023-02-15T12:20:58;61;54;
70691;PMS5003;58267;51.156;17.044;2023-02-15T12:23:24;61;57;
70691;PMS5003;58267;51.156;17.044;2023-02-15T12:25:50;58;53;
70691;PMS5003;58267;51.156;17.044;2023-02-15T12:28:19;58;53;
70691;PMS5003;58267;51.156;17.044;2023-02-15T12:30:41;56;55;
70691;PMS5003;58267;51.156;17.044;2023-02-15T12:33:13;61;56;
70691;PMS5003;58267;51.156;17.044;2023-02-15T12:35:31;65;59;
70691;PMS5003;58267;51.156;17.044;2023-02-15T12:37:56;58;51;
70691;PMS5003;58267;51.156;17.044;2023-02-15T12:40:23;64;56;
70691;PMS5003;58267;51.156;17.044;2023-02-15T12:42:47;54;51;
70691;PMS5003;58267;51.156;17.044;2023-02-15T12:47:38;54;51;
70691;PMS5003;58267;51.156;17.044;2023-02-15T12:50:08;64;57;
70691;PMS5003;58267;51.156;17.044;2023-02-15T12:52:29;66;57;
70691;PMS5003;58267;51.156;17.044;2023-02-15T12:54:55;54;50;
70691;PMS5003;58267;51.156;17.044;2023-02-15T12:57:22;62;51;
70691;PMS5003;58267;51.156;17.044;2023-02-15T12:59:49;60;53;
70691;PMS5003;58267;51.156;17.044;2023-02-15T13:02:12;54;47;
70691;PMS5003;58267;51.156;17.044;2023-02-15T13:04:36;56;53;
70691;PMS5003;58267;51.156;17.044;2023-02-15T13:07:02;58;53;
70691;PMS5003;58267;51.156;17.044;2023-02-15T13:11:53;59;54;
70691;PMS5003;58267;51.156;17.044;2023-02-15T13:14:19;61;56;
70691;PMS5003;58267;51.156;17.044;2023-02-15T13:16:45;58;52;
70691;PMS5003;58267;51.156;17.044;2023-02-15T13:19:12;62;56;
70691;PMS5003;58267;51.156;17.044;2023-02-15T13:21:36;58;55;
70691;PMS5003;58267;51.156;17.044;2023-02-15T13:24:02;62;55;
70691;PMS5003;58267;51.156;17.044;2023-02-15T13:26:27;60;53;
70691;PMS5003;58267;51.156;17.044;2023-02-15T13:28:53;68;61;
70691;PMS5003;58267;51.156;17.044;2023-02-15T13:31:19;66;58;
70691;PMS5003;58267;51.156;17.044;2023-02-15T13:33:45;59;56;
70691;PMS5003;58267;51.156;17.044;2023-02-15T13:36:11;64;59;
70691;PMS5003;58267;51.156;17.044;2023-02-15T13:41:02;56;52;
70691;PMS5003;58267;51.156;17.044;2023-02-15T13:43:31;59;56;
70691;PMS5003;58267;51.156;17.044;2023-02-15T13:45:56;51;46;
70691;PMS5003;58267;51.156;17.044;2023-02-15T13:48:19;61;53;
70691;PMS5003;58267;51.156;17.044;2023-02-15T13:50:50;54;50;
70691;PMS5003;58267;51.156;17.044;2023-02-15T13:53:13;58;52;
70691;PMS5003;58267;51.156;17.044;2023-02-15T13:55:36;59;55;
70691;PMS5003;58267;51.156;17.044;2023-02-15T13:58:02;55;49;
70691;PMS5003;58267;51.156;17.044;2023-02-15T14:00:25;60;57;
70691;PMS5003;58267;51.156;17.044;2023-02-15T14:02:55;57;54;
70691;PMS5003;58267;51.156;17.044;2023-02-15T14:07:44;54;49;
70691;PMS5003;58267;51.156;17.044;2023-02-15T14:10:12;58;51;
70691;PMS5003;58267;51.156;17.044;2023-02-15T14:12:35;61;57;
70691;PMS5003;58267;51.156;17.044;2023-02-15T14:15:02;57;54;
70691;PMS5003;58267;51.156;17.044;2023-02-15T14:17:23;59;54;
70691;PMS5003;58267;51.156;17.044;2023-02-15T14:19:50;48;47;
70691;PMS5003;58267;51.156;17.044;2023-02-15T14:22:16;55;50;
70691;PMS5003;58267;51.156;17.044;2023-02-15T14:24:40;51;50;
70691;PMS5003;58267;51.156;17.044;2023-02-15T14:27:09;49;46;
70691;PMS5003;58267;51.156;17.044;2023-02-15T14:29:36;53;48;
70691;PMS5003;58267;51.156;17.044;2023-02-15T14:31:57;57;52;
70691;PMS5003;58267;51.156;17.044;2023-02-15T14:34:22;55;51;
70691;PMS5003;58267;51.156;17.044;2023-02-15T14:36:47;56;53;
70691;PMS5003;58267;51.156;17.044;2023-02-15T14:39:15;55;48;
70691;PMS5003;58267;51.156;17.044;2023-02-15T14:41:39;48;45;
70691;PMS5003;58267;51.156;17.044;2023-02-15T14:44:06;51;48;
70691;PMS5003;58267;51.156;17.044;2023-02-15T14:46:30;52;50;
70691;PMS5003;58267;51.156;17.044;2023-02-15T14:48:55;52;46;
70691;PMS5003;58267;51.156;17.044;2023-02-15T14:53:45;54;52;
70691;PMS5003;58267;51.156;17.044;2023-02-15T14:56:14;52;48;
70691;PMS5003;58267;51.156;17.044;2023-02-15T14:58:36;53;52;
70691;PMS5003;58267;51.156;17.044;2023-02-15T15:01:03;49;48;
70691;PMS5003;58267;51.156;17.044;2023-02-15T15:03:27;47;45;
70691;PMS5003;58267;51.156;17.044;2023-02-15T15:05:52;50;47;
70691;PMS5003;58267;51.156;17.044;2023-02-15T15:08:22;59;50;
70691;PMS5003;58267;51.156;17.044;2023-02-15T15:10:44;52;49;
70691;PMS5003;58267;51.156;17.044;2023-02-15T15:15:39;50;46;
70691;PMS5003;58267;51.156;17.044;2023-02-15T15:18:00;48;44;
70691;PMS5003;58267;51.156;17.044;2023-02-15T15:22:51;52;49;
70691;PMS5003;58267;51.156;17.044;2023-02-15T15:27:44;54;49;
70691;PMS5003;58267;51.156;17.044;2023-02-15T15:32:33;53;47;
70691;PMS5003;58267;51.156;17.044;2023-02-15T15:35:04;56;50;
70691;PMS5003;58267;51.156;17.044;2023-02-15T15:37:30;52;47;
70691;PMS5003;58267;51.156;17.044;2023-02-15T15:42:19;56;53;
70691;PMS5003;58267;51.156;17.044;2023-02-15T15:47:10;57;52;
70691;PMS5003;58267;51.156;17.044;2023-02-15T15:49:31;63;57;
70691;PMS5003;58267;51.156;17.044;2023-02-15T15:51:59;58;54;
70691;PMS5003;58267;51.156;17.044;2023-02-15T15:54:24;54;51;
70691;PMS5003;58267;51.156;17.044;2023-02-15T15:56:49;53;51;
70691;PMS5003;58267;51.156;17.044;2023-02-15T15:59:16;56;52;
70691;PMS5003;58267;51.156;17.044;2023-02-15T16:01:40;65;57;
70691;PMS5003;58267;51.156;17.044;2023-02-15T16:04:10;56;55;
70691;PMS5003;58267;51.156;17.044;2023-02-15T16:06:33;53;51;
70691;PMS5003;58267;51.156;17.044;2023-02-15T16:08:58;62;55;
70691;PMS5003;58267;51.156;17.044;2023-02-15T16:11:23;57;49;
70691;PMS5003;58267;51.156;17.044;2023-02-15T16:13:48;62;56;
70691;PMS5003;58267;51.156;17.044;2023-02-15T16:16:19;57;54;
70691;PMS5003;58267;51.156;17.044;2023-02-15T16:18:39;68;63;
70691;PMS5003;58267;51.156;17.044;2023-02-15T16:21:05;60;55;
70691;PMS5003;58267;51.156;17.044;2023-02-15T16:23:35;64;57;